Time;durP1;ratioP1;P1;durP2;ratioP2;P2;SDS_P1;SDS_P2;PMS_P1;PMS_P2;Temp;Humidity;BMP_temperature;BMP_pressure;BME280_temperature;BME280_humidity;BME280_pressure;Samples;Min_cycle;Max_cycle;Signal;HPM_P1;HPM_P2
2023/06/27 00:01:13;;;;;;;0.20;0.20;;;;;;;16.37;100.00;99822.41;5045888;28;20032;-60
2023/06/27 00:03:39;;;;;;;0.35;0.35;;;;;;;16.37;100.00;99813.69;5046212;28;20033;-61
2023/06/27 00:06:04;;;;;;;0.20;0.20;;;;;;;16.40;100.00;99813.56;5045909;28;20052;-61
2023/06/27 00:08:33;;;;;;;0.20;0.20;;;;;;;16.41;100.00;99810.00;5045460;28;20033;-61
2023/06/27 00:10:59;;;;;;;0.57;0.57;;;;;;;16.40;100.00;99813.56;5046069;28;20481;-61
2023/06/27 00:13:25;;;;;;;0.30;0.30;;;;;;;16.42;100.00;99806.50;5045741;28;20069;-61
2023/06/27 00:15:52;;;;;;;0.20;0.20;;;;;;;16.44;100.00;99799.41;5046023;28;20091;-61
2023/06/27 00:18:22;;;;;;;0.20;0.20;;;;;;;16.41;100.00;99802.16;5045651;28;20017;-61
2023/06/27 00:20:51;;;;;;;0.20;0.20;;;;;;;16.36;100.00;99791.88;5045966;28;20099;-61
2023/06/27 00:23:33;;;;;;;0.20;0.20;;;;;;;16.34;99.77;99799.78;5045687;28;20021;-61
2023/06/27 00:25:59;;;;;;;0.20;0.20;;;;;;;16.41;99.70;99794.28;5045795;28;20048;-61
2023/06/27 00:28:24;;;;;;;0.20;0.20;;;;;;;16.39;100.00;99780.44;5027874;28;20036;-61
2023/06/27 00:30:50;;;;;;;0.20;0.20;;;;;;;16.38;99.15;99787.44;5045215;28;20052;-61
2023/06/27 00:33:15;;;;;;;0.20;0.20;;;;;;;16.43;100.00;99792.47;5045589;28;20021;-62
2023/06/27 00:35:41;;;;;;;0.30;0.30;;;;;;;16.44;100.00;99799.41;5045371;28;20053;-61
2023/06/27 00:38:07;;;;;;;0.20;0.20;;;;;;;16.47;100.00;99794.88;5045489;28;20065;-61
2023/06/27 00:40:33;;;;;;;0.30;0.30;;;;;;;16.47;100.00;99800.13;5045362;28;20366;-61
2023/06/27 00:42:58;;;;;;;0.57;0.57;;;;;;;16.32;99.24;99793.78;5045279;28;20239;-63
2023/06/27 00:45:23;;;;;;;0.20;0.20;;;;;;;16.16;99.49;99787.47;5045343;28;20025;-63
2023/06/27 00:47:51;;;;;;;0.20;0.20;;;;;;;16.10;99.19;99791.22;5045293;28;20025;-63
2023/06/27 00:50:19;;;;;;;0.30;0.30;;;;;;;16.01;99.82;99786.38;5045278;28;20081;-64
2023/06/27 00:52:45;;;;;;;0.35;0.35;;;;;;;15.96;100.00;99778.66;5045161;28;20085;-63
2023/06/27 00:55:11;;;;;;;0.20;0.20;;;;;;;15.89;100.00;99778.06;5045138;28;20100;-63
2023/06/27 00:57:37;;;;;;;0.28;0.28;;;;;;;15.86;100.00;99765.94;5043741;28;20132;-62
2023/06/27 01:00:03;;;;;;;0.20;0.20;;;;;;;15.86;100.00;99776.41;5043997;28;20029;-62
2023/06/27 01:02:28;;;;;;;0.20;0.20;;;;;;;15.82;100.00;99780.06;5044970;28;20053;-62
2023/06/27 01:04:54;;;;;;;0.20;0.20;;;;;;;15.82;100.00;99782.69;5045057;28;20029;-62
2023/06/27 01:07:29;;;;;;;0.50;0.50;;;;;;;15.72;100.00;99771.75;5044734;28;20032;-62
2023/06/27 01:10:01;;;;;;;0.20;0.20;;;;;;;15.70;100.00;99773.56;5045118;28;20052;-62
2023/06/27 01:12:57;;;;;;;0.20;0.20;;;;;;;15.64;100.00;99768.56;5045117;28;20048;-63
2023/06/27 01:15:23;;;;;;;0.20;0.20;;;;;;;15.47;100.00;99774.47;5045066;28;20022;-63
2023/06/27 01:17:49;;;;;;;0.32;0.32;;;;;;;15.26;100.00;99773.53;5044408;28;20057;-63
2023/06/27 01:20:15;;;;;;;0.52;0.52;;;;;;;15.16;100.00;99767.81;5044829;28;20040;-63
2023/06/27 01:23:09;;;;;;;0.20;0.20;;;;;;;15.17;100.00;99774.75;5044944;28;20021;-63
2023/06/27 01:25:37;;;;;;;0.20;0.20;;;;;;;15.14;100.00;99778.34;5039048;28;20041;-61
2023/06/27 01:28:04;;;;;;;0.30;0.30;;;;;;;15.06;100.00;99773.41;5044968;28;20077;-63
2023/06/27 01:30:33;;;;;;;0.20;0.20;;;;;;;15.04;100.00;99770.00;5044736;28;20029;-62
2023/06/27 01:33:06;;;;;;;0.20;0.20;;;;;;;15.02;100.00;99774.41;5044647;28;20029;-63
2023/06/27 01:35:47;;;;;;;0.20;0.20;;;;;;;15.04;100.00;99763.91;5044527;28;20053;-63
2023/06/27 01:38:20;;;;;;;0.20;0.20;;;;;;;15.06;100.00;99765.56;5044645;28;20029;-63
2023/06/27 01:40:49;;;;;;;0.20;0.20;;;;;;;15.10;100.00;99763.66;5044666;28;20025;-63
2023/06/27 01:43:16;;;;;;;1.42;1.33;;;;;;;15.06;100.00;99749.88;5044598;28;20104;-65
2023/06/27 01:45:43;;;;;;;0.20;0.20;;;;;;;15.03;100.00;99752.56;5044534;28;20024;-63
2023/06/27 01:48:09;;;;;;;0.20;0.20;;;;;;;15.05;100.00;99753.38;5043205;28;20022;-62
2023/06/27 01:50:34;;;;;;;0.20;0.20;;;;;;;15.04;100.00;99754.31;5043387;28;20017;-65
2023/06/27 01:53:00;;;;;;;0.20;0.20;;;;;;;15.03;100.00;99757.81;5044725;28;20056;-64
2023/06/27 01:55:25;;;;;;;0.20;0.20;;;;;;;15.04;100.00;99759.53;5044617;28;20044;-63
2023/06/27 01:57:51;;;;;;;0.20;0.20;;;;;;;15.05;100.00;99750.78;5044342;28;20026;-64
2023/06/27 02:00:17;;;;;;;0.20;0.20;;;;;;;15.09;100.00;99751.50;5044324;28;20032;-64
2023/06/27 02:02:43;;;;;;;0.20;0.20;;;;;;;15.10;100.00;99748.84;5044468;28;20037;-64
2023/06/27 02:05:09;;;;;;;0.20;0.20;;;;;;;15.10;100.00;99751.44;5044542;28;20612;-63
2023/06/27 02:07:35;;;;;;;0.20;0.20;;;;;;;15.07;100.00;99738.50;5044231;28;20033;-62
2023/06/27 02:10:00;;;;;;;0.20;0.20;;;;;;;15.12;100.00;99738.31;5044360;28;20505;-62
2023/06/27 02:12:26;;;;;;;0.63;0.63;;;;;;;15.16;100.00;99733.84;5044249;28;20021;-63
2023/06/27 02:14:51;;;;;;;0.20;0.20;;;;;;;15.15;100.00;99734.72;5044407;28;20056;-63
2023/06/27 02:17:17;;;;;;;0.30;0.30;;;;;;;15.17;100.00;99736.38;5044194;28;20052;-63
2023/06/27 02:19:42;;;;;;;0.20;0.20;;;;;;;15.20;100.00;99738.88;5044337;28;20025;-63
2023/06/27 02:22:08;;;;;;;0.30;0.30;;;;;;;15.22;100.00;99738.81;5044378;28;20021;-62
2023/06/27 02:24:33;;;;;;;0.20;0.20;;;;;;;15.24;100.00;99731.75;5044329;28;20025;-62
2023/06/27 02:26:58;;;;;;;0.20;0.20;;;;;;;15.19;100.00;99731.09;5044222;28;20108;-65
2023/06/27 02:29:24;;;;;;;0.20;0.20;;;;;;;15.25;100.00;99725.63;5044356;28;20025;-65
2023/06/27 02:31:49;;;;;;;0.30;0.30;;;;;;;15.12;100.00;99725.25;5047337;28;20021;-67
2023/06/27 02:34:15;;;;;;;0.20;0.20;;;;;;;15.16;100.00;99729.44;5047667;28;20049;-68
2023/06/27 02:36:40;;;;;;;0.20;0.20;;;;;;;15.03;100.00;99715.97;5047938;28;20060;-68
2023/06/27 02:39:05;;;;;;;0.30;0.30;;;;;;;15.01;100.00;99725.66;5047542;28;20022;-66
2023/06/27 02:41:31;;;;;;;0.20;0.20;;;;;;;14.96;100.00;99711.91;5047959;28;20104;-66
2023/06/27 02:43:56;;;;;;;0.30;0.30;;;;;;;14.96;100.00;99718.00;5047618;28;20545;-66
2023/06/27 02:46:22;;;;;;;0.20;0.20;;;;;;;14.86;100.00;99695.72;5047331;28;20028;-65
2023/06/27 02:48:47;;;;;;;0.20;0.20;;;;;;;15.02;100.00;99718.66;5047868;28;20024;-65
2023/06/27 02:51:13;;;;;;;0.20;0.20;;;;;;;15.00;100.00;99700.41;5047653;28;20026;-65
2023/06/27 02:53:38;;;;;;;0.20;0.20;;;;;;;15.10;100.00;99712.25;5046144;28;20029;-65
2023/06/27 02:56:04;;;;;;;0.20;0.20;;;;;;;15.10;100.00;99701.78;5047585;28;20025;-66
2023/06/27 02:58:30;;;;;;;0.20;0.20;;;;;;;15.14;100.00;99706.91;5047231;28;20070;-65
2023/06/27 03:00:57;;;;;;;0.28;0.28;;;;;;;15.17;100.00;99693.69;5047350;28;20138;-65
2023/06/27 03:03:22;;;;;;;0.28;0.28;;;;;;;15.23;100.00;99696.94;5047250;28;20031;-64
2023/06/27 03:05:48;;;;;;;0.20;0.20;;;;;;;15.30;100.00;99692.31;5047216;28;20116;-60
2023/06/27 03:08:13;;;;;;;0.30;0.30;;;;;;;15.32;100.00;99681.78;5047036;28;20021;-63
2023/06/27 03:10:39;;;;;;;0.20;0.20;;;;;;;15.38;100.00;99694.63;5047235;28;20017;-63
2023/06/27 03:13:04;;;;;;;0.55;0.55;;;;;;;15.39;100.00;99674.53;5046988;28;20029;-63
2023/06/27 03:15:29;;;;;;;0.20;0.20;;;;;;;15.30;100.00;99676.63;5047119;28;20028;-67
2023/06/27 03:17:55;;;;;;;0.20;0.20;;;;;;;15.22;100.00;99676.91;5046889;28;20029;-65
2023/06/27 03:20:21;;;;;;;0.20;0.20;;;;;;;15.08;100.00;99677.44;5029344;28;20036;-64
2023/06/27 03:22:47;;;;;;;0.20;0.20;;;;;;;14.99;100.00;99667.38;5047033;28;20021;-64
2023/06/27 03:25:12;;;;;;;0.43;0.43;;;;;;;14.89;100.00;99661.63;5047028;28;20032;-65
2023/06/27 03:27:38;;;;;;;0.20;0.20;;;;;;;14.90;100.00;99662.50;5046891;28;20036;-63
2023/06/27 03:30:04;;;;;;;0.20;0.20;;;;;;;14.73;100.00;99648.28;5046899;28;20020;-64
2023/06/27 03:32:30;;;;;;;0.35;0.35;;;;;;;14.75;100.00;99654.28;5046491;28;20033;-65
2023/06/27 03:34:55;;;;;;;0.50;0.50;;;;;;;14.79;100.00;99655.91;5046517;28;20084;-64
2023/06/27 03:37:20;;;;;;;0.30;0.30;;;;;;;14.80;100.00;99659.38;5046566;28;20066;-64
2023/06/27 03:39:46;;;;;;;0.30;0.30;;;;;;;14.86;100.00;99656.53;5046646;28;20440;-64
2023/06/27 03:42:11;;;;;;;0.30;0.30;;;;;;;14.89;100.00;99660.81;5046552;28;20025;-65
2023/06/27 03:44:37;;;;;;;0.20;0.20;;;;;;;14.90;100.00;99652.91;5046450;28;20022;-65
2023/06/27 03:47:03;;;;;;;0.20;0.20;;;;;;;14.93;100.00;99652.78;5046382;28;20032;-64
2023/06/27 03:49:28;;;;;;;0.22;0.22;;;;;;;14.95;100.00;99644.88;5046705;28;20025;-64
2023/06/27 03:51:54;;;;;;;0.20;0.20;;;;;;;14.97;100.00;99656.09;5046429;28;20028;-63
2023/06/27 03:54:20;;;;;;;0.30;0.30;;;;;;;14.97;100.00;99653.50;5046480;28;20141;-62
2023/06/27 03:56:46;;;;;;;0.20;0.20;;;;;;;15.04;100.00;99660.19;5046157;28;20025;-61
2023/06/27 03:59:11;;;;;;;0.20;0.20;;;;;;;15.07;100.00;99654.00;5046187;28;20029;-62
2023/06/27 04:01:39;;;;;;;0.20;0.20;;;;;;;15.09;100.00;99660.03;5046031;28;20025;-62
2023/06/27 04:04:04;;;;;;;0.50;0.50;;;;;;;15.10;100.00;99656.47;5046389;28;20477;-63
2023/06/27 04:06:30;;;;;;;0.20;0.20;;;;;;;15.09;100.00;99657.41;5045965;28;20056;-62
2023/06/27 04:08:57;;;;;;;0.20;0.20;;;;;;;15.07;100.00;99654.84;5046002;28;20021;-62
2023/06/27 04:11:22;;;;;;;0.20;0.20;;;;;;;15.04;100.00;99654.97;5046048;28;20053;-62
2023/06/27 04:13:48;;;;;;;1.55;1.48;;;;;;;15.08;100.00;99651.31;5046110;28;20053;-63
2023/06/27 04:16:14;;;;;;;0.20;0.20;;;;;;;15.06;100.00;99653.16;5046259;28;20025;-63
2023/06/27 04:18:40;;;;;;;0.20;0.20;;;;;;;15.03;100.00;99645.41;5045565;28;20031;-62
2023/06/27 04:21:06;;;;;;;0.30;0.30;;;;;;;15.10;100.00;99649.50;5046060;28;20110;-63
2023/06/27 04:23:31;;;;;;;0.20;0.20;;;;;;;15.08;100.00;99646.09;5045969;28;20056;-59
2023/06/27 04:26:05;;;;;;;0.70;0.70;;;;;;;15.13;100.00;99652.91;5045765;28;20017;-62
2023/06/27 04:28:31;;;;;;;0.20;0.20;;;;;;;15.17;100.00;99662.31;5045831;28;20108;-60
2023/06/27 04:30:58;;;;;;;0.20;0.20;;;;;;;15.12;100.00;99646.81;5045806;28;20031;-60
2023/06/27 04:33:23;;;;;;;0.28;0.28;;;;;;;15.18;100.00;99650.94;5045532;28;20022;-61
2023/06/27 04:35:48;;;;;;;0.30;0.30;;;;;;;15.21;100.00;99648.22;5040852;28;20111;-60
2023/06/27 04:38:14;;;;;;;0.20;0.20;;;;;;;15.19;100.00;99650.06;5025270;28;20382;-60
2023/06/27 04:40:41;;;;;;;0.30;0.30;;;;;;;15.18;100.00;99651.81;5025933;28;20041;-61
2023/06/27 04:43:07;;;;;;;0.20;0.20;;;;;;;15.21;100.00;99650.81;5025552;28;20036;-61
2023/06/27 04:45:33;;;;;;;7.30;3.40;;;;;;;15.16;100.00;99642.34;5025900;28;20022;-61
2023/06/27 04:47:58;;;;;;;0.20;0.20;;;;;;;15.24;100.00;99648.94;5025501;28;20022;-62
2023/06/27 04:50:23;;;;;;;0.20;0.20;;;;;;;15.26;100.00;99655.88;5025677;28;20026;-62
2023/06/27 04:52:49;;;;;;;0.20;0.20;;;;;;;15.30;100.00;99645.25;5025325;28;20053;-62
2023/06/27 04:55:15;;;;;;;0.20;0.20;;;;;;;15.29;100.00;99642.69;5025666;28;20022;-62
2023/06/27 04:57:41;;;;;;;0.20;0.20;;;;;;;15.27;100.00;99640.13;5025109;28;20097;-60
2023/06/27 05:00:09;;;;;;;1.10;1.00;;;;;;;15.31;100.00;99640.84;5025636;28;20022;-61
2023/06/27 05:02:35;;;;;;;0.28;0.28;;;;;;;15.38;100.00;99651.91;5025536;28;20397;-60
2023/06/27 05:05:00;;;;;;;0.20;0.20;;;;;;;15.33;100.00;99639.91;5025594;28;20022;-61
2023/06/27 05:07:26;;;;;;;0.20;0.20;;;;;;;15.37;100.00;99640.59;5025464;28;20462;-61
2023/06/27 05:09:51;;;;;;;2.50;1.60;;;;;;;15.43;100.00;99635.09;5025348;28;20025;-61
2023/06/27 05:12:16;;;;;;;0.20;0.20;;;;;;;15.45;100.00;99637.66;5025329;28;20028;-60
2023/06/27 05:14:42;;;;;;;0.20;0.20;;;;;;;15.51;100.00;99640.03;5025474;28;20029;-60
2023/06/27 05:17:07;;;;;;;0.20;0.20;;;;;;;15.54;100.00;99637.31;5025262;28;20033;-60
2023/06/27 05:19:32;;;;;;;0.20;0.20;;;;;;;15.55;100.00;99638.13;5025095;28;20021;-60
2023/06/27 05:21:58;;;;;;;0.30;0.30;;;;;;;15.50;100.00;99627.88;5025434;28;20034;-60
2023/06/27 05:24:23;;;;;;;0.20;0.20;;;;;;;15.57;100.00;99642.41;5040338;28;20109;-60
2023/06/27 05:26:48;;;;;;;0.20;0.20;;;;;;;15.56;100.00;99637.25;5040322;28;20044;-60
2023/06/27 05:29:14;;;;;;;0.30;0.30;;;;;;;15.59;100.00;99645.78;5025221;28;20108;-60
2023/06/27 05:31:40;;;;;;;0.20;0.20;;;;;;;15.62;100.00;99639.59;5024958;28;20026;-60
2023/06/27 05:34:06;;;;;;;0.20;0.20;;;;;;;15.71;100.00;99641.81;5028756;28;20045;-60
2023/06/27 05:36:32;;;;;;;0.88;0.88;;;;;;;15.83;100.00;99650.09;5043694;28;20025;-60
2023/06/27 05:38:57;;;;;;;0.30;0.30;;;;;;;15.89;100.00;99654.19;5044571;28;20028;-61
2023/06/27 05:41:23;;;;;;;0.30;0.30;;;;;;;15.87;100.00;99651.63;5044677;28;20049;-60
2023/06/27 05:43:48;;;;;;;0.45;0.45;;;;;;;15.86;100.00;99657.78;5044751;28;20049;-60
2023/06/27 05:46:14;;;;;;;0.35;0.35;;;;;;;15.83;100.00;99663.16;5044689;28;20079;-61
2023/06/27 05:48:40;;;;;;;0.25;0.25;;;;;;;15.78;100.00;99671.22;5044658;28;20033;-60
2023/06/27 05:51:06;;;;;;;1.40;0.73;;;;;;;15.82;100.00;99664.91;5027114;28;20497;-60
2023/06/27 05:53:32;;;;;;;0.20;0.20;;;;;;;15.91;100.00;99665.44;5044960;28;20025;-60
2023/06/27 05:55:57;;;;;;;0.20;0.20;;;;;;;16.07;100.00;99661.28;5044759;28;20025;-60
2023/06/27 05:58:22;;;;;;;0.20;0.20;;;;;;;16.16;100.00;99659.19;5044675;28;20056;-59
2023/06/27 06:00:48;;;;;;;0.20;0.20;;;;;;;16.29;100.00;99664.72;5043321;28;20552;-59
2023/06/27 06:03:13;;;;;;;0.70;0.70;;;;;;;16.35;100.00;99653.97;5044438;28;20486;-60
2023/06/27 06:05:39;;;;;;;0.30;0.30;;;;;;;16.57;100.00;99653.00;5028288;28;20044;-61
2023/06/27 06:08:04;;;;;;;0.20;0.20;;;;;;;16.71;100.00;99649.72;5048463;28;20075;-60
2023/06/27 06:10:29;;;;;;;0.30;0.30;;;;;;;16.96;100.00;99662.53;5048586;28;20445;-61
2023/06/27 06:12:55;;;;;;;0.20;0.20;;;;;;;17.02;100.00;99656.19;5048428;28;20088;-60
2023/06/27 06:15:20;;;;;;;0.20;0.20;;;;;;;17.07;100.00;99664.69;5048446;28;20025;-60
2023/06/27 06:17:46;;;;;;;13.48;3.50;;;;;;;17.32;100.00;99663.53;5048171;28;20037;-60
2023/06/27 06:20:11;;;;;;;1.85;1.15;;;;;;;17.65;100.00;99663.72;5048269;28;20030;-60
2023/06/27 06:22:37;;;;;;;0.82;0.82;;;;;;;17.94;100.00;99661.34;5048085;28;20083;-60
2023/06/27 06:25:04;;;;;;;0.20;0.20;;;;;;;18.05;100.00;99664.28;5048253;28;20057;-59
2023/06/27 06:27:29;;;;;;;0.20;0.20;;;;;;;18.17;100.00;99651.47;5047710;28;20040;-60
2023/06/27 06:29:55;;;;;;;0.20;0.20;;;;;;;18.33;100.00;99647.13;5047793;28;20013;-59
2023/06/27 06:32:20;;;;;;;0.20;0.20;;;;;;;18.51;100.00;99651.47;5047618;28;20029;-59
2023/06/27 06:34:45;;;;;;;0.20;0.20;;;;;;;18.58;100.00;99647.56;5047917;28;20095;-60
2023/06/27 06:37:12;;;;;;;0.20;0.20;;;;;;;18.63;100.00;99657.81;5047648;28;20026;-60
2023/06/27 06:39:38;;;;;;;0.20;0.20;;;;;;;18.72;100.00;99673.13;5029993;28;20044;-59
2023/06/27 06:42:03;;;;;;;0.20;0.20;;;;;;;19.03;100.00;99660.91;5047789;28;20469;-59
2023/06/27 06:44:29;;;;;;;0.20;0.20;;;;;;;19.33;100.00;99667.16;5047608;28;20358;-59
2023/06/27 06:46:54;;;;;;;0.20;0.20;;;;;;;19.63;100.00;99655.78;5047375;28;20021;-60
2023/06/27 06:49:19;;;;;;;0.17;0.17;;;;;;;20.19;100.00;99660.44;5047737;28;20049;-59
2023/06/27 06:51:46;;;;;;;0.30;0.30;;;;;;;20.76;100.00;99660.50;5047547;28;20051;-60
2023/06/27 06:54:11;;;;;;;0.85;0.85;;;;;;;20.94;100.00;99657.66;5047479;28;20022;-59
2023/06/27 06:56:37;;;;;;;0.68;0.68;;;;;;;21.12;96.77;99657.41;5047643;28;20026;-59
2023/06/27 06:59:03;;;;;;;0.20;0.20;;;;;;;21.25;92.98;99662.72;5047378;28;20077;-59
2023/06/27 07:01:28;;;;;;;0.13;0.13;;;;;;;21.53;94.58;99667.03;5047494;28;20026;-60
2023/06/27 07:03:54;;;;;;;0.20;0.20;;;;;;;21.61;94.00;99668.31;5047280;28;20095;-60
2023/06/27 07:06:20;;;;;;;0.35;0.35;;;;;;;21.83;94.48;99662.47;5047296;28;20026;-59
2023/06/27 07:08:45;;;;;;;0.10;0.10;;;;;;;21.63;94.92;99663.78;5047114;28;20026;-59
2023/06/27 07:11:11;;;;;;;0.10;0.10;;;;;;;21.37;93.01;99671.66;5047317;28;20029;-60
2023/06/27 07:13:36;;;;;;;0.10;0.10;;;;;;;21.12;91.24;99663.53;5047207;28;20442;-59
2023/06/27 07:16:02;;;;;;;0.10;0.10;;;;;;;20.92;89.79;99665.69;5046679;28;20032;-59
2023/06/27 07:18:27;;;;;;;0.20;0.20;;;;;;;20.68;85.88;99663.63;5046722;28;20036;-59
2023/06/27 07:20:52;;;;;;;0.10;0.10;;;;;;;20.60;81.47;99665.03;5047101;28;20029;-60
2023/06/27 07:23:18;;;;;;;0.20;0.20;;;;;;;21.18;90.64;99673.69;5045743;28;20021;-61
2023/06/27 07:25:43;;;;;;;0.13;0.13;;;;;;;21.62;83.51;99670.00;5047034;28;20033;-60
2023/06/27 07:28:08;;;;;;;0.15;0.15;;;;;;;21.95;77.03;99673.16;5046771;28;20025;-59
2023/06/27 07:30:34;;;;;;;0.63;0.63;;;;;;;22.09;80.24;99666.91;5047103;28;20421;-59
2023/06/27 07:32:59;;;;;;;0.10;0.10;;;;;;;22.20;79.19;99679.38;5046596;28;20025;-59
2023/06/27 07:35:25;;;;;;;0.10;0.10;;;;;;;22.22;77.69;99678.31;5046815;28;20107;-59
2023/06/27 07:37:50;;;;;;;0.10;0.10;;;;;;;22.23;73.79;99673.88;5046671;28;20062;-59
2023/06/27 07:40:16;;;;;;;0.25;0.25;;;;;;;22.10;73.24;99679.19;5046748;28;20040;-59
2023/06/27 07:42:41;;;;;;;0.10;0.10;;;;;;;21.83;75.30;99682.75;5046605;28;20021;-59
2023/06/27 07:45:07;;;;;;;0.20;0.20;;;;;;;21.66;77.50;99682.06;5045209;28;20029;-60
2023/06/27 07:47:32;;;;;;;0.20;0.20;;;;;;;21.47;75.57;99683.28;5046318;28;20345;-59
2023/06/27 07:49:58;;;;;;;0.20;0.20;;;;;;;21.24;76.30;99690.94;5046558;28;20021;-59
2023/06/27 07:52:23;;;;;;;0.10;0.10;;;;;;;20.99;76.64;99686.38;5046470;28;20042;-56
2023/06/27 07:54:48;;;;;;;0.43;0.43;;;;;;;20.67;75.53;99703.28;5046530;28;20029;-60
2023/06/27 07:57:14;;;;;;;0.20;0.20;;;;;;;20.48;76.81;99688.56;5046351;28;20487;-60
2023/06/27 07:59:39;;;;;;;0.70;0.70;;;;;;;20.27;74.06;99701.28;5046274;28;20032;-59
2023/06/27 08:02:05;;;;;;;0.28;0.28;;;;;;;20.09;74.96;99688.28;5045864;28;20156;-59
2023/06/27 08:04:32;;;;;;;0.20;0.20;;;;;;;19.98;76.66;99675.75;5046432;28;20029;-60
2023/06/27 08:06:57;;;;;;;0.20;0.20;;;;;;;20.12;77.40;99695.16;5046318;28;20037;-59
2023/06/27 08:09:22;;;;;;;0.20;0.20;;;;;;;20.35;77.04;99688.47;5046110;28;20021;-59
2023/06/27 08:11:48;;;;;;;0.55;0.55;;;;;;;21.11;81.45;99672.41;5046251;28;20043;-59
2023/06/27 08:14:14;;;;;;;0.20;0.20;;;;;;;22.17;78.01;99686.56;5045820;28;20025;-60
2023/06/27 08:16:39;;;;;;;0.20;0.20;;;;;;;22.82;71.05;99682.19;5046024;28;20040;-59
2023/06/27 08:19:05;;;;;;;0.20;0.20;;;;;;;22.93;74.08;99687.53;5045466;28;20117;-59
2023/06/27 08:21:30;;;;;;;0.20;0.20;;;;;;;22.56;68.38;99695.44;5045938;28;20025;-59
2023/06/27 08:23:56;;;;;;;0.10;0.10;;;;;;;22.33;70.86;99687.31;5045680;28;20032;-59
2023/06/27 08:26:21;;;;;;;0.20;0.20;;;;;;;22.73;75.17;99687.16;5044534;28;20029;-59
2023/06/27 08:28:47;;;;;;;0.17;0.17;;;;;;;23.45;71.79;99692.63;5044824;28;20029;-59
2023/06/27 08:31:13;;;;;;;1.10;1.10;;;;;;;23.75;70.60;99693.94;5045819;28;20021;-59
2023/06/27 08:33:39;;;;;;;0.10;0.10;;;;;;;24.01;66.14;99693.78;5045363;28;20029;-59
2023/06/27 08:36:08;;;;;;;0.10;0.10;;;;;;;24.72;66.37;99691.03;5045410;28;20084;-59
2023/06/27 08:38:33;;;;;;;0.20;0.20;;;;;;;25.61;64.56;99689.22;5045530;28;20539;-59
2023/06/27 08:41:00;;;;;;;0.10;0.10;;;;;;;26.54;65.68;99688.53;5045606;28;20025;-59
2023/06/27 08:43:26;;;;;;;0.10;0.10;;;;;;;27.15;58.14;99688.56;5045711;28;20030;-59
2023/06/27 08:45:54;;;;;;;0.10;0.10;;;;;;;27.36;62.40;99687.59;5045672;28;20025;-59
2023/06/27 08:48:20;;;;;;;0.10;0.10;;;;;;;27.23;59.90;99687.84;5044931;28;20056;-59
2023/06/27 08:50:46;;;;;;;0.80;0.73;;;;;;;26.94;62.03;99688.63;5027479;28;20036;-60
2023/06/27 08:53:17;;;;;;;0.10;0.10;;;;;;;26.31;61.03;99693.19;5045165;28;20022;-60
2023/06/27 08:56:04;;;;;;;0.13;0.13;;;;;;;25.39;59.50;99693.69;5045538;28;20092;-59
2023/06/27 08:58:51;;;;;;;0.10;0.10;;;;;;;24.57;58.60;99688.63;5045391;28;20108;-60
2023/06/27 09:01:17;;;;;;;0.10;0.10;;;;;;;23.87;63.07;99691.31;5045418;28;20044;-59
2023/06/27 09:03:43;;;;;;;0.20;0.20;;;;;;;23.49;64.98;99688.81;5045053;28;20025;-59
2023/06/27 09:06:09;;;;;;;0.30;0.30;;;;;;;23.45;66.48;99681.22;5045235;28;20040;-60
2023/06/27 09:08:35;;;;;;;0.10;0.10;;;;;;;23.94;66.32;99695.22;5045139;28;20022;-60
2023/06/27 09:11:04;;;;;;;0.20;0.20;;;;;;;23.95;64.32;99693.38;5045058;28;20044;-59
2023/06/27 09:13:30;;;;;;;0.10;0.10;;;;;;;23.69;64.35;99688.28;5045029;28;20035;-59
2023/06/27 09:15:55;;;;;;;0.10;0.10;;;;;;;23.39;62.85;99695.75;5045223;28;20037;-59
2023/06/27 09:18:20;;;;;;;0.10;0.10;;;;;;;23.09;66.54;99702.31;5044753;28;20064;-59
2023/06/27 09:20:46;;;;;;;0.20;0.20;;;;;;;22.80;62.41;99702.59;5045052;28;20018;-60
2023/06/27 09:23:12;;;;;;;0.10;0.10;;;;;;;22.45;66.28;99699.69;5044933;28;20111;-60
2023/06/27 09:25:37;;;;;;;0.10;0.10;;;;;;;22.15;66.64;99709.66;5044744;28;20029;-59
2023/06/27 09:28:16;;;;;;;0.20;0.20;;;;;;;21.90;64.57;99706.00;5044786;28;20099;-59
2023/06/27 09:30:56;;;;;;;0.20;0.20;;;;;;;21.72;66.78;99696.66;5045033;28;20512;-60
2023/06/27 09:33:21;;;;;;;0.15;0.15;;;;;;;21.83;67.44;99704.75;5044753;28;20029;-60
2023/06/27 09:35:47;;;;;;;0.20;0.20;;;;;;;21.86;67.26;99707.19;5044743;28;20049;-60
2023/06/27 09:38:13;;;;;;;0.77;0.77;;;;;;;21.93;68.39;99704.97;5044686;28;20057;-58
2023/06/27 09:40:39;;;;;;;15.77;1.65;;;;;;;22.08;68.95;99704.88;5047965;28;20474;-60
2023/06/27 09:43:06;;;;;;;0.20;0.20;;;;;;;22.19;69.78;99697.03;5048765;28;20025;-59
2023/06/27 09:45:32;;;;;;;0.20;0.20;;;;;;;22.17;66.22;99685.75;5048933;28;20045;-60
2023/06/27 09:48:00;;;;;;;0.10;0.10;;;;;;;22.17;65.39;99693.69;5047213;28;20048;-60
2023/06/27 09:50:30;;;;;;;0.35;0.35;;;;;;;22.12;69.56;99694.00;5048840;28;20100;-60
2023/06/27 09:52:58;;;;;;;0.20;0.20;;;;;;;22.19;68.76;99704.97;5048612;28;20029;-60
2023/06/27 09:55:24;;;;;;;0.28;0.28;;;;;;;22.28;68.63;99704.31;5048897;28;20075;-61
2023/06/27 09:57:49;;;;;;;1.13;1.08;;;;;;;22.38;66.87;99701.91;5048699;28;20033;-61
2023/06/27 10:00:23;;;;;;;0.10;0.10;;;;;;;22.38;67.05;99709.00;5048542;28;20079;-60
2023/06/27 10:02:52;;;;;;;0.17;0.17;;;;;;;22.20;66.36;99708.47;5048380;28;20440;-60
2023/06/27 10:05:19;;;;;;;0.20;0.20;;;;;;;22.10;67.63;99701.19;5048641;28;20030;-60
2023/06/27 10:07:46;;;;;;;0.20;0.20;;;;;;;22.13;66.97;99700.09;5048453;28;20025;-60
2023/06/27 10:10:13;;;;;;;0.43;0.43;;;;;;;22.10;68.86;99706.47;5048538;28;20089;-60
2023/06/27 10:12:39;;;;;;;0.20;0.20;;;;;;;22.09;70.74;99703.91;5048545;28;20045;-60
2023/06/27 10:15:08;;;;;;;0.45;0.45;;;;;;;22.08;66.66;99704.88;5048520;28;20048;-60
2023/06/27 10:17:34;;;;;;;3.45;1.65;;;;;;;21.95;66.59;99699.59;5048172;28;20056;-60
2023/06/27 10:20:00;;;;;;;0.10;0.10;;;;;;;21.94;66.97;99704.00;5048115;28;20025;-59
2023/06/27 10:22:31;;;;;;;0.15;0.15;;;;;;;22.03;66.57;99716.59;5048347;28;20385;-60
2023/06/27 10:25:01;;;;;;;0.30;0.30;;;;;;;21.87;66.23;99710.69;5048224;28;20466;-60
2023/06/27 10:27:27;;;;;;;0.20;0.20;;;;;;;21.78;68.99;99707.69;5048210;28;20394;-59
2023/06/27 10:29:52;;;;;;;0.20;0.20;;;;;;;21.65;67.86;99712.06;5048217;28;20009;-60
2023/06/27 10:32:19;;;;;;;0.22;0.22;;;;;;;21.48;69.60;99706.13;5047849;28;20025;-60
2023/06/27 10:34:45;;;;;;;0.20;0.20;;;;;;;21.31;68.43;99701.91;5048016;28;20048;-60
2023/06/27 10:37:22;;;;;;;0.20;0.20;;;;;;;21.27;68.42;99689.88;5047782;28;20030;-60
2023/06/27 10:39:58;;;;;;;0.20;0.20;;;;;;;21.28;66.58;99697.69;5047892;28;20028;-60
2023/06/27 10:42:23;;;;;;;0.20;0.20;;;;;;;21.34;68.86;99698.25;5048112;28;20099;-60
2023/06/27 10:45:04;;;;;;;0.57;0.57;;;;;;;21.20;66.60;99710.53;5047851;28;20034;-60
2023/06/27 10:47:47;;;;;;;0.43;0.43;;;;;;;21.18;66.82;99717.72;5047815;28;20021;-60
2023/06/27 10:50:35;;;;;;;0.10;0.10;;;;;;;21.17;67.35;99718.66;5047820;28;20060;-60
2023/06/27 10:53:05;;;;;;;0.20;0.20;;;;;;;21.20;69.06;99710.53;5047584;28;20123;-60
2023/06/27 10:55:32;;;;;;;0.10;0.10;;;;;;;21.10;69.73;99712.09;5047806;28;20017;-59
2023/06/27 10:58:09;;;;;;;0.15;0.15;;;;;;;21.02;69.28;99713.41;5047581;28;20021;-61
2023/06/27 11:00:40;;;;;;;0.20;0.20;;;;;;;20.93;70.01;99711.34;5047651;28;20021;-60
2023/06/27 11:03:06;;;;;;;0.63;0.63;;;;;;;20.74;67.99;99714.25;5046106;28;20036;-60
2023/06/27 11:05:58;;;;;;;0.20;0.20;;;;;;;20.52;68.11;99729.66;5047526;28;20029;-59
2023/06/27 11:08:28;;;;;;;0.13;0.13;;;;;;;20.29;68.95;99734.50;5044545;28;20069;-60
2023/06/27 11:10:59;;;;;;;0.20;0.20;;;;;;;20.15;69.79;99732.72;5047574;28;20021;-60
2023/06/27 11:13:28;;;;;;;0.20;0.20;;;;;;;20.08;70.24;99741.06;5046090;28;20488;-60
2023/06/27 11:15:55;;;;;;;1.02;1.02;;;;;;;20.06;71.33;99746.44;5047437;28;20057;-60
2023/06/27 11:18:25;;;;;;;0.20;0.20;;;;;;;19.93;71.24;99748.91;5046879;28;20398;-58
2023/06/27 11:20:51;;;;;;;0.20;0.20;;;;;;;19.76;71.71;99750.72;5047147;28;20030;-64
2023/06/27 11:23:20;;;;;;;0.20;0.20;;;;;;;19.65;72.94;99747.88;5046994;28;20490;-60
2023/06/27 11:25:46;;;;;;;0.20;0.20;;;;;;;19.61;72.99;99741.06;5047151;28;20017;-60
2023/06/27 11:28:16;;;;;;;0.20;0.20;;;;;;;19.47;73.07;99741.88;5046843;28;20041;-60